sensor_id;sensor_type;location;lat;lon;timestamp;pressure;altitude;pressure_sealevel;temperature;humidity
24306;BME280;12423;48.768;8.850;2023-02-01T00:00:16;97644.63;;;2.47;100.00
24306;BME280;12423;48.768;8.850;2023-02-01T00:02:17;97637.78;;;2.43;100.00
24306;BME280;12423;48.768;8.850;2023-02-01T00:04:18;97633.28;;;2.45;100.00
24306;BME280;12423;48.768;8.850;2023-02-01T00:06:19;97624.94;;;2.54;100.00
24306;BME280;12423;48.768;8.850;2023-02-01T00:08:20;97637.09;;;2.58;100.00
24306;BME280;12423;48.768;8.850;2023-02-01T00:10:21;97626.34;;;2.63;100.00
24306;BME280;12423;48.768;8.850;2023-02-01T00:12:22;97625.47;;;2.62;100.00
24306;BME280;12423;48.768;8.850;2023-02-01T00:14:23;97621.00;;;2.64;100.00
24306;BME280;12423;48.768;8.850;2023-02-01T00:16:27;97619.34;;;2.62;100.00
24306;BME280;12423;48.768;8.850;2023-02-01T00:18:28;97622.38;;;2.52;100.00
24306;BME280;12423;48.768;8.850;2023-02-01T00:20:29;97629.25;;;2.56;100.00
24306;BME280;12423;48.768;8.850;2023-02-01T00:22:30;97614.13;;;2.60;100.00
24306;BME280;12423;48.768;8.850;2023-02-01T00:24:31;97617.41;;;2.65;100.00
24306;BME280;12423;48.768;8.850;2023-02-01T00:26:33;97607.88;;;2.63;100.00
24306;BME280;12423;48.768;8.850;2023-02-01T00:28:34;97612.28;;;2.62;100.00
24306;BME280;12423;48.768;8.850;2023-02-01T00:30:35;97608.59;;;2.66;100.00
24306;BME280;12423;48.768;8.850;2023-02-01T00:32:36;97592.13;;;2.61;100.00
24306;BME280;12423;48.768;8.850;2023-02-01T00:34:37;97596.31;;;2.65;100.00
24306;BME280;12423;48.768;8.850;2023-02-01T00:36:38;97607.16;;;2.59;100.00
24306;BME280;12423;48.768;8.850;2023-02-01T00:38:39;97605.44;;;2.58;100.00
24306;BME280;12423;48.768;8.850;2023-02-01T00:40:40;97596.31;;;2.65;100.00
24306;BME280;12423;48.768;8.850;2023-02-01T00:42:42;97589.47;;;2.61;100.00
24306;BME280;12423;48.768;8.850;2023-02-01T00:44:43;97596.38;;;2.64;100.00
24306;BME280;12423;48.768;8.850;2023-02-01T00:46:44;97598.03;;;2.66;100.00
24306;BME280;12423;48.768;8.850;2023-02-01T00:48:45;97599.25;;;2.59;100.00
24306;BME280;12423;48.768;8.850;2023-02-01T00:50:46;97604.22;;;2.65;100.00
24306;BME280;12423;48.768;8.850;2023-02-01T00:52:47;97594.44;;;2.67;100.00
24306;BME280;12423;48.768;8.850;2023-02-01T00:54:48;97593.75;;;2.64;100.00
24306;BME280;12423;48.768;8.850;2023-02-01T00:56:49;97596.03;;;2.71;100.00
24306;BME280;12423;48.768;8.850;2023-02-01T00:58:53;97589.78;;;2.74;100.00
24306;BME280;12423;48.768;8.850;2023-02-01T01:03:02;97587.22;;;2.72;100.00
24306;BME280;12423;48.768;8.850;2023-02-01T01:05:03;97587.22;;;2.72;100.00
24306;BME280;12423;48.768;8.850;2023-02-01T01:07:04;97580.34;;;2.68;100.00
24306;BME280;12423;48.768;8.850;2023-02-01T01:09:07;97568.69;;;2.74;100.00
24306;BME280;12423;48.768;8.850;2023-02-01T01:11:11;97585.28;;;2.76;100.00
24306;BME280;12423;48.768;8.850;2023-02-01T01:13:12;97592.81;;;2.84;100.00
24306;BME280;12423;48.768;8.850;2023-02-01T01:15:13;97576.56;;;2.93;100.00
24306;BME280;12423;48.768;8.850;2023-02-01T01:17:14;97564.53;;;2.87;100.00
24306;BME280;12423;48.768;8.850;2023-02-01T01:19:15;97580.13;;;2.92;100.00
24306;BME280;12423;48.768;8.850;2023-02-01T01:21:17;97568.72;;;2.91;100.00
24306;BME280;12423;48.768;8.850;2023-02-01T01:23:18;97567.75;;;2.94;100.00
24306;BME280;12423;48.768;8.850;2023-02-01T01:25:19;97568.66;;;2.93;100.00
24306;BME280;12423;48.768;8.850;2023-02-01T01:27:20;97569.75;;;2.89;100.00
24306;BME280;12423;48.768;8.850;2023-02-01T01:29:24;97575.88;;;2.89;100.00
24306;BME280;12423;48.768;8.850;2023-02-01T01:31:26;97577.50;;;2.92;100.00
24306;BME280;12423;48.768;8.850;2023-02-01T01:33:28;97579.50;;;2.87;100.00
24306;BME280;12423;48.768;8.850;2023-02-01T01:35:30;97578.50;;;2.89;100.00
24306;BME280;12423;48.768;8.850;2023-02-01T01:37:32;97566.31;;;2.87;100.00
24306;BME280;12423;48.768;8.850;2023-02-01T01:39:33;97577.94;;;2.83;100.00
24306;BME280;12423;48.768;8.850;2023-02-01T01:41:34;97567.38;;;2.83;100.00
24306;BME280;12423;48.768;8.850;2023-02-01T01:43:47;97570.88;;;2.83;100.00
24306;BME280;12423;48.768;8.850;2023-02-01T01:45:50;97577.22;;;2.79;100.00
24306;BME280;12423;48.768;8.850;2023-02-01T01:48:05;97563.81;;;2.84;100.00
24306;BME280;12423;48.768;8.850;2023-02-01T01:50:11;97572.66;;;2.83;100.00
24306;BME280;12423;48.768;8.850;2023-02-01T01:52:13;97566.38;;;2.85;100.00
24306;BME280;12423;48.768;8.850;2023-02-01T01:54:24;97558.38;;;2.87;100.00
24306;BME280;12423;48.768;8.850;2023-02-01T01:56:29;97564.59;;;2.86;100.00
24306;BME280;12423;48.768;8.850;2023-02-01T01:58:32;97562.75;;;2.88;100.00
24306;BME280;12423;48.768;8.850;2023-02-01T02:00:34;97566.22;;;2.88;100.00
24306;BME280;12423;48.768;8.850;2023-02-01T02:02:37;97553.03;;;2.88;100.00
24306;BME280;12423;48.768;8.850;2023-02-01T02:04:39;97562.75;;;2.88;100.00
24306;BME280;12423;48.768;8.850;2023-02-01T02:07:00;97554.69;;;2.91;100.00
24306;BME280;12423;48.768;8.850;2023-02-01T02:09:03;97558.03;;;2.94;100.00
24306;BME280;12423;48.768;8.850;2023-02-01T02:11:04;97549.28;;;2.94;100.00
24306;BME280;12423;48.768;8.850;2023-02-01T02:13:05;97553.75;;;2.92;100.00
24306;BME280;12423;48.768;8.850;2023-02-01T02:15:07;97551.97;;;2.92;100.00
24306;BME280;12423;48.768;8.850;2023-02-01T02:17:19;97551.09;;;2.92;100.00
24306;BME280;12423;48.768;8.850;2023-02-01T02:26:33;97541.63;;;2.88;100.00
24306;BME280;12423;48.768;8.850;2023-02-01T02:28:55;97531.72;;;2.93;100.00
24306;BME280;12423;48.768;8.850;2023-02-01T02:41:32;97538.47;;;3.18;100.00
24306;BME280;12423;48.768;8.850;2023-02-01T02:43:57;97529.75;;;3.16;100.00
24306;BME280;12423;48.768;8.850;2023-02-01T02:46:26;97533.47;;;3.11;100.00
24306;BME280;12423;48.768;8.850;2023-02-01T02:49:01;97527.56;;;3.06;100.00
24306;BME280;12423;48.768;8.850;2023-02-01T02:51:14;97538.25;;;3.03;100.00
24306;BME280;12423;48.768;8.850;2023-02-01T02:53:58;97542.69;;;3.03;100.00
24306;BME280;12423;48.768;8.850;2023-02-01T02:56:22;97527.13;;;2.97;100.00
24306;BME280;12423;48.768;8.850;2023-02-01T02:58:44;97515.59;;;2.99;100.00
24306;BME280;12423;48.768;8.850;2023-02-01T03:01:06;97517.94;;;3.05;100.00
24306;BME280;12423;48.768;8.850;2023-02-01T03:03:26;97520.09;;;2.97;100.00
24306;BME280;12423;48.768;8.850;2023-02-01T03:05:48;97523.44;;;3.01;100.00
24306;BME280;12423;48.768;8.850;2023-02-01T03:08:03;97533.38;;;3.13;100.00
24306;BME280;12423;48.768;8.850;2023-02-01T03:10:08;97527.75;;;3.21;100.00
24306;BME280;12423;48.768;8.850;2023-02-01T03:12:13;97537.41;;;3.22;100.00
24306;BME280;12423;48.768;8.850;2023-02-01T03:14:35;97537.41;;;3.22;100.00
24306;BME280;12423;48.768;8.850;2023-02-01T03:16:51;97536.16;;;3.29;100.00
24306;BME280;12423;48.768;8.850;2023-02-01T03:19:16;97534.91;;;3.36;100.00
24306;BME280;12423;48.768;8.850;2023-02-01T03:21:24;97524.81;;;3.27;100.00
24306;BME280;12423;48.768;8.850;2023-02-01T03:23:31;97522.47;;;3.21;100.00
24306;BME280;12423;48.768;8.850;2023-02-01T03:25:34;97520.81;;;3.18;100.00
24306;BME280;12423;48.768;8.850;2023-02-01T03:27:55;97506.16;;;3.12;100.00
24306;BME280;12423;48.768;8.850;2023-02-01T03:30:18;97506.28;;;3.09;100.00
24306;BME280;12423;48.768;8.850;2023-02-01T03:32:21;97502.19;;;3.04;100.00
24306;BME280;12423;48.768;8.850;2023-02-01T03:34:22;97493.72;;;3.14;100.00
24306;BME280;12423;48.768;8.850;2023-02-01T03:36:30;97502.25;;;3.20;100.00
24306;BME280;12423;48.768;8.850;2023-02-01T03:38:51;97502.97;;;3.23;100.00
24306;BME280;12423;48.768;8.850;2023-02-01T03:43:18;97493.13;;;3.27;100.00
24306;BME280;12423;48.768;8.850;2023-02-01T03:45:27;97496.22;;;3.18;100.00
24306;BME280;12423;48.768;8.850;2023-02-01T03:47:34;97491.56;;;3.23;100.00
24306;BME280;12423;48.768;8.850;2023-02-01T03:49:40;97486.91;;;3.28;100.00
24306;BME280;12423;48.768;8.850;2023-02-01T03:51:43;97491.88;;;3.34;100.00
24306;BME280;12423;48.768;8.850;2023-02-01T03:53:45;97485.03;;;3.30;100.00
24306;BME280;12423;48.768;8.850;2023-02-01T03:55:49;97477.22;;;3.46;100.00
24306;BME280;12423;48.768;8.850;2023-02-01T03:57:56;97474.78;;;3.41;100.00
24306;BME280;12423;48.768;8.850;2023-02-01T04:00:06;97479.31;;;3.39;100.00
24306;BME280;12423;48.768;8.850;2023-02-01T04:02:14;97462.69;;;3.37;100.00
24306;BME280;12423;48.768;8.850;2023-02-01T04:04:16;97474.47;;;3.30;100.00
24306;BME280;12423;48.768;8.850;2023-02-01T04:06:21;97478.38;;;3.40;100.00
24306;BME280;12423;48.768;8.850;2023-02-01T04:08:23;97497.50;;;3.45;100.00
24306;BME280;12423;48.768;8.850;2023-02-01T04:10:25;97495.78;;;3.44;100.00
24306;BME280;12423;48.768;8.850;2023-02-01T04:12:26;97495.47;;;3.50;100.00
24306;BME280;12423;48.768;8.850;2023-02-01T04:14:27;97499.03;;;3.49;100.00
24306;BME280;12423;48.768;8.850;2023-02-01T04:16:27;97498.88;;;3.53;100.00
24306;BME280;12423;48.768;8.850;2023-02-01T04:18:28;97490.50;;;3.44;100.00
24306;BME280;12423;48.768;8.850;2023-02-01T04:20:30;97501.69;;;3.49;100.00
24306;BME280;12423;48.768;8.850;2023-02-01T04:22:31;97481.56;;;3.47;100.00
24306;BME280;12423;48.768;8.850;2023-02-01T04:24:32;97492.28;;;3.44;100.00
24306;BME280;12423;48.768;8.850;2023-02-01T04:26:33;97488.47;;;3.49;100.00
24306;BME280;12423;48.768;8.850;2023-02-01T04:28:33;97471.69;;;3.50;100.00
24306;BME280;12423;48.768;8.850;2023-02-01T04:30:34;97477.13;;;3.47;100.00
24306;BME280;12423;48.768;8.850;2023-02-01T04:32:36;97482.41;;;3.47;100.00
24306;BME280;12423;48.768;8.850;2023-02-01T04:34:37;97495.91;;;3.41;100.00
24306;BME280;12423;48.768;8.850;2023-02-01T04:36:38;97505.50;;;3.44;100.00
24306;BME280;12423;48.768;8.850;2023-02-01T04:38:39;97512.25;;;3.49;100.00
24306;BME280;12423;48.768;8.850;2023-02-01T04:40:40;97515.34;;;3.58;100.00
24306;BME280;12423;48.768;8.850;2023-02-01T04:42:41;97502.22;;;3.56;100.00
24306;BME280;12423;48.768;8.850;2023-02-01T04:44:42;97495.94;;;3.59;100.00
24306;BME280;12423;48.768;8.850;2023-02-01T04:46:44;97488.00;;;3.59;100.00
24306;BME280;12423;48.768;8.850;2023-02-01T04:48:45;97482.88;;;3.56;100.00
24306;BME280;12423;48.768;8.850;2023-02-01T04:50:48;97481.09;;;3.56;100.00
24306;BME280;12423;48.768;8.850;2023-02-01T04:52:49;97456.53;;;3.54;100.00
24306;BME280;12423;48.768;8.850;2023-02-01T04:54:50;97460.97;;;3.54;100.00
24306;BME280;12423;48.768;8.850;2023-02-01T04:56:52;97469.06;;;3.50;100.00
24306;BME280;12423;48.768;8.850;2023-02-01T04:58:53;97466.25;;;3.54;100.00
24306;BME280;12423;48.768;8.850;2023-02-01T05:00:53;97461.44;;;3.62;100.00
24306;BME280;12423;48.768;8.850;2023-02-01T05:02:54;97464.69;;;3.67;100.00
24306;BME280;12423;48.768;8.850;2023-02-01T05:04:55;97468.19;;;3.67;100.00
24306;BME280;12423;48.768;8.850;2023-02-01T05:06:56;97478.22;;;3.61;100.00
24306;BME280;12423;48.768;8.850;2023-02-01T05:08:57;97494.53;;;3.69;100.00
24306;BME280;12423;48.768;8.850;2023-02-01T05:10:58;97498.28;;;3.65;100.00
24306;BME280;12423;48.768;8.850;2023-02-01T05:12:59;97502.47;;;3.69;100.00
24306;BME280;12423;48.768;8.850;2023-02-01T05:15:19;97502.22;;;3.74;100.00
24306;BME280;12423;48.768;8.850;2023-02-01T05:17:20;97496.41;;;3.67;100.00
24306;BME280;12423;48.768;8.850;2023-02-01T05:19:21;97493.84;;;3.65;100.00
24306;BME280;12423;48.768;8.850;2023-02-01T05:21:22;97492.84;;;3.68;100.00
24306;BME280;12423;48.768;8.850;2023-02-01T05:23:23;97493.69;;;3.68;100.00
24306;BME280;12423;48.768;8.850;2023-02-01T05:25:24;97499.28;;;3.62;100.00
24306;BME280;12423;48.768;8.850;2023-02-01T05:27:25;97483.41;;;3.62;100.00
24306;BME280;12423;48.768;8.850;2023-02-01T05:29:26;97493.91;;;3.64;100.00
24306;BME280;12423;48.768;8.850;2023-02-01T05:31:27;97496.09;;;3.73;100.00
24306;BME280;12423;48.768;8.850;2023-02-01T05:33:28;97496.78;;;3.77;100.00
24306;BME280;12423;48.768;8.850;2023-02-01T05:35:29;97496.78;;;3.77;100.00
24306;BME280;12423;48.768;8.850;2023-02-01T05:37:30;97500.75;;;3.85;100.00
24306;BME280;12423;48.768;8.850;2023-02-01T05:39:31;97511.22;;;3.87;100.00
24306;BME280;12423;48.768;8.850;2023-02-01T05:41:32;97519.09;;;3.88;100.00
24306;BME280;12423;48.768;8.850;2023-02-01T05:43:33;97523.09;;;3.96;100.00
24306;BME280;12423;48.768;8.850;2023-02-01T05:45:34;97535.56;;;3.94;100.00
24306;BME280;12423;48.768;8.850;2023-02-01T05:47:35;97524.06;;;3.95;100.00
24306;BME280;12423;48.768;8.850;2023-02-01T05:49:36;97516.44;;;3.88;100.00
24306;BME280;12423;48.768;8.850;2023-02-01T05:51:37;97519.25;;;3.85;100.00
24306;BME280;12423;48.768;8.850;2023-02-01T05:53:37;97518.94;;;3.74;100.00
24306;BME280;12423;48.768;8.850;2023-02-01T05:55:38;97507.44;;;3.75;100.00
24306;BME280;12423;48.768;8.850;2023-02-01T05:57:39;97511.00;;;3.74;100.00
24306;BME280;12423;48.768;8.850;2023-02-01T05:59:41;97509.78;;;3.81;100.00
24306;BME280;12423;48.768;8.850;2023-02-01T06:01:42;97506.19;;;3.82;100.00
24306;BME280;12423;48.768;8.850;2023-02-01T06:03:43;97521.13;;;3.83;100.00
24306;BME280;12423;48.768;8.850;2023-02-01T06:05:44;97517.63;;;3.83;100.00
24306;BME280;12423;48.768;8.850;2023-02-01T06:07:46;97516.44;;;3.88;100.00
24306;BME280;12423;48.768;8.850;2023-02-01T06:09:47;97512.94;;;3.88;100.00
24306;BME280;12423;48.768;8.850;2023-02-01T06:11:48;97505.03;;;3.88;100.00
24306;BME280;12423;48.768;8.850;2023-02-01T06:13:50;97499.50;;;3.93;100.00
24306;BME280;12423;48.768;8.850;2023-02-01T06:15:51;97484.72;;;3.88;100.00
24306;BME280;12423;48.768;8.850;2023-02-01T06:17:52;97489.84;;;3.92;100.00
24306;BME280;12423;48.768;8.850;2023-02-01T06:19:53;97466.00;;;3.93;100.00
24306;BME280;12423;48.768;8.850;2023-02-01T06:21:53;97481.00;;;3.93;100.00
24306;BME280;12423;48.768;8.850;2023-02-01T06:23:55;97496.59;;;3.97;100.00
24306;BME280;12423;48.768;8.850;2023-02-01T06:26:05;97502.31;;;3.90;100.00
24306;BME280;12423;48.768;8.850;2023-02-01T06:28:08;97496.88;;;3.93;100.00
24306;BME280;12423;48.768;8.850;2023-02-01T06:30:09;97501.97;;;3.96;100.00
24306;BME280;12423;48.768;8.850;2023-02-01T06:32:11;97494.81;;;3.98;100.00
24306;BME280;12423;48.768;8.850;2023-02-01T06:34:12;97499.16;;;3.99;100.00
24306;BME280;12423;48.768;8.850;2023-02-01T06:36:13;97500.13;;;3.98;100.00
24306;BME280;12423;48.768;8.850;2023-02-01T06:38:14;97505.41;;;3.98;100.00
24306;BME280;12423;48.768;8.850;2023-02-01T06:40:15;97513.06;;;4.02;100.00
24306;BME280;12423;48.768;8.850;2023-02-01T06:42:16;97522.03;;;4.00;100.00
24306;BME280;12423;48.768;8.850;2023-02-01T06:44:17;97512.06;;;4.05;100.00
24306;BME280;12423;48.768;8.850;2023-02-01T06:46:18;97487.16;;;4.09;100.00
24306;BME280;12423;48.768;8.850;2023-02-01T06:48:19;97489.84;;;4.25;100.00
24306;BME280;12423;48.768;8.850;2023-02-01T06:50:20;97491.34;;;4.31;100.00
24306;BME280;12423;48.768;8.850;2023-02-01T06:52:21;97490.97;;;4.21;100.00
24306;BME280;12423;48.768;8.850;2023-02-01T06:54:22;97495.59;;;4.33;100.00
24306;BME280;12423;48.768;8.850;2023-02-01T06:56:23;97492.41;;;4.27;100.00
24306;BME280;12423;48.768;8.850;2023-02-01T06:58:30;97497.09;;;4.21;100.00
24306;BME280;12423;48.768;8.850;2023-02-01T07:00:31;97500.28;;;4.28;100.00
24306;BME280;12423;48.768;8.850;2023-02-01T07:02:32;97492.91;;;4.17;100.00
24306;BME280;12423;48.768;8.850;2023-02-01T07:04:33;97503.31;;;4.20;100.00
24306;BME280;12423;48.768;8.850;2023-02-01T07:06:34;97506.84;;;4.21;100.00
24306;BME280;12423;48.768;8.850;2023-02-01T07:08:37;97519.03;;;4.23;100.00
24306;BME280;12423;48.768;8.850;2023-02-01T07:10:38;97526.88;;;4.25;100.00
24306;BME280;12423;48.768;8.850;2023-02-01T07:12:56;97526.13;;;4.23;100.00
24306;BME280;12423;48.768;8.850;2023-02-01T07:14:58;97514.69;;;4.22;100.00
24306;BME280;12423;48.768;8.850;2023-02-01T07:16:59;97527.28;;;4.17;100.00
24306;BME280;12423;48.768;8.850;2023-02-01T07:19:00;97533.38;;;4.19;100.00
24306;BME280;12423;48.768;8.850;2023-02-01T07:21:01;97543.06;;;4.19;100.00
24306;BME280;12423;48.768;8.850;2023-02-01T07:23:02;97556.13;;;4.22;100.00
24306;BME280;12423;48.768;8.850;2023-02-01T07:25:03;97542.81;;;4.23;100.00
24306;BME280;12423;48.768;8.850;2023-02-01T07:27:04;97549.06;;;4.22;100.00
24306;BME280;12423;48.768;8.850;2023-02-01T07:29:05;97548.13;;;4.23;100.00
24306;BME280;12423;48.768;8.850;2023-02-01T07:31:11;97540.94;;;4.25;100.00
24306;BME280;12423;48.768;8.850;2023-02-01T07:33:14;97547.28;;;4.23;100.00
24306;BME280;12423;48.768;8.850;2023-02-01T07:35:15;97558.84;;;4.38;100.00
24306;BME280;12423;48.768;8.850;2023-02-01T07:37:16;97558.75;;;4.39;100.00
24306;BME280;12423;48.768;8.850;2023-02-01T07:39:17;97574.47;;;4.42;100.00
24306;BME280;12423;48.768;8.850;2023-02-01T07:41:18;97559.28;;;4.46;100.00
24306;BME280;12423;48.768;8.850;2023-02-01T07:43:19;97556.56;;;4.48;100.00
24306;BME280;12423;48.768;8.850;2023-02-01T07:45:20;97559.59;;;4.40;100.00
24306;BME280;12423;48.768;8.850;2023-02-01T07:47:21;97545.59;;;4.38;100.00
24306;BME280;12423;48.768;8.850;2023-02-01T07:49:22;97550.75;;;4.41;100.00
24306;BME280;12423;48.768;8.850;2023-02-01T07:51:23;97547.50;;;4.52;100.00
24306;BME280;12423;48.768;8.850;2023-02-01T07:53:24;97543.00;;;4.54;100.00
24306;BME280;12423;48.768;8.850;2023-02-01T07:55:25;97548.31;;;4.54;100.00
24306;BME280;12423;48.768;8.850;2023-02-01T07:57:25;97544.09;;;4.50;100.00
24306;BME280;12423;48.768;8.850;2023-02-01T07:59:26;97540.16;;;4.57;100.00
24306;BME280;12423;48.768;8.850;2023-02-01T08:01:28;97547.34;;;4.55;100.00
24306;BME280;12423;48.768;8.850;2023-02-01T08:03:29;97545.38;;;4.58;100.00
24306;BME280;12423;48.768;8.850;2023-02-01T08:05:30;97531.31;;;4.58;100.00
24306;BME280;12423;48.768;8.850;2023-02-01T08:07:31;97536.06;;;4.51;100.00
24306;BME280;12423;48.768;8.850;2023-02-01T08:09:32;97536.44;;;4.61;100.00
24306;BME280;12423;48.768;8.850;2023-02-01T08:11:33;97536.44;;;4.61;100.00
24306;BME280;12423;48.768;8.850;2023-02-01T08:13:34;97527.47;;;4.64;100.00
24306;BME280;12423;48.768;8.850;2023-02-01T08:15:36;97534.81;;;4.58;100.00
24306;BME280;12423;48.768;8.850;2023-02-01T08:17:37;97529.03;;;4.68;100.00
24306;BME280;12423;48.768;8.850;2023-02-01T08:19:37;97536.44;;;4.61;100.00
24306;BME280;12423;48.768;8.850;2023-02-01T08:21:38;97535.31;;;4.65;100.00
24306;BME280;12423;48.768;8.850;2023-02-01T08:23:40;97541.41;;;4.67;100.00
24306;BME280;12423;48.768;8.850;2023-02-01T08:25:42;97546.88;;;4.64;100.00
24306;BME280;12423;48.768;8.850;2023-02-01T08:27:43;97543.97;;;4.69;100.00
24306;BME280;12423;48.768;8.850;2023-02-01T08:29:44;97543.22;;;4.83;100.00
24306;BME280;12423;48.768;8.850;2023-02-01T08:31:45;97539.72;;;4.82;100.00
24306;BME280;12423;48.768;8.850;2023-02-01T08:33:52;97544.22;;;4.80;100.00
24306;BME280;12423;48.768;8.850;2023-02-01T08:35:53;97541.41;;;4.83;100.00
24306;BME280;12423;48.768;8.850;2023-02-01T08:37:54;97536.97;;;4.99;100.00
24306;BME280;12423;48.768;8.850;2023-02-01T08:39:55;97547.94;;;4.93;100.00
24306;BME280;12423;48.768;8.850;2023-02-01T08:41:56;97550.03;;;5.03;100.00
24306;BME280;12423;48.768;8.850;2023-02-01T08:44:15;97548.00;;;5.08;100.00
24306;BME280;12423;48.768;8.850;2023-02-01T08:46:16;97547.31;;;5.04;100.00
24306;BME280;12423;48.768;8.850;2023-02-01T08:48:17;97546.13;;;4.94;100.00
24306;BME280;12423;48.768;8.850;2023-02-01T08:50:19;97555.88;;;4.93;100.00
24306;BME280;12423;48.768;8.850;2023-02-01T08:52:21;97558.69;;;4.90;100.00
24306;BME280;12423;48.768;8.850;2023-02-01T08:54:22;97549.44;;;4.97;100.00
24306;BME280;12423;48.768;8.850;2023-02-01T08:56:23;97561.16;;;4.93;100.00
24306;BME280;12423;48.768;8.850;2023-02-01T08:58:24;97568.81;;;4.98;100.00
24306;BME280;12423;48.768;8.850;2023-02-01T09:00:25;97560.00;;;4.82;100.00
24306;BME280;12423;48.768;8.850;2023-02-01T09:02:26;97562.50;;;4.85;100.00
24306;BME280;12423;48.768;8.850;2023-02-01T09:04:27;97545.50;;;4.73;100.00
24306;BME280;12423;48.768;8.850;2023-02-01T09:06:28;97569.31;;;4.73;100.00
24306;BME280;12423;48.768;8.850;2023-02-01T09:08:29;97568.47;;;4.72;100.00
24306;BME280;12423;48.768;8.850;2023-02-01T09:10:31;97575.22;;;4.78;100.00
24306;BME280;12423;48.768;8.850;2023-02-01T09:12:33;97588.69;;;4.73;100.00
24306;BME280;12423;48.768;8.850;2023-02-01T09:14:34;97576.84;;;4.80;100.00
24306;BME280;12423;48.768;8.850;2023-02-01T09:16:35;97586.69;;;4.78;100.00
24306;BME280;12423;48.768;8.850;2023-02-01T09:18:36;97585.34;;;4.70;100.00
24306;BME280;12423;48.768;8.850;2023-02-01T09:20:37;97568.72;;;4.68;100.00
24306;BME280;12423;48.768;8.850;2023-02-01T09:22:39;97569.72;;;4.65;100.00
24306;BME280;12423;48.768;8.850;2023-02-01T09:24:40;97574.53;;;4.74;100.00
24306;BME280;12423;48.768;8.850;2023-02-01T09:26:41;97582.56;;;4.73;100.00
24306;BME280;12423;48.768;8.850;2023-02-01T09:28:41;97580.50;;;4.78;100.00
24306;BME280;12423;48.768;8.850;2023-02-01T09:30:42;97584.78;;;4.80;100.00
24306;BME280;12423;48.768;8.850;2023-02-01T09:32:43;97588.41;;;4.95;100.00
24306;BME280;12423;48.768;8.850;2023-02-01T09:34:44;97582.09;;;5.14;100.00
24306;BME280;12423;48.768;8.850;2023-02-01T09:36:45;97590.28;;;5.25;100.00
24306;BME280;12423;48.768;8.850;2023-02-01T09:38:46;97574.56;;;5.22;100.00
24306;BME280;12423;48.768;8.850;2023-02-01T09:40:47;97579.44;;;5.30;100.00
24306;BME280;12423;48.768;8.850;2023-02-01T09:43:00;97578.50;;;5.31;100.00
24306;BME280;12423;48.768;8.850;2023-02-01T09:45:27;97603.44;;;5.27;100.00
24306;BME280;12423;48.768;8.850;2023-02-01T09:47:30;97587.41;;;5.30;100.00
24306;BME280;12423;48.768;8.850;2023-02-01T09:49:33;97590.47;;;5.38;100.00
24306;BME280;12423;48.768;8.850;2023-02-01T09:51:38;97596.19;;;5.46;100.00
24306;BME280;12423;48.768;8.850;2023-02-01T09:53:43;97602.75;;;5.39;100.00
24306;BME280;12423;48.768;8.850;2023-02-01T09:55:48;97599.16;;;5.56;100.00
24306;BME280;12423;48.768;8.850;2023-02-01T09:58:01;97603.34;;;5.60;100.00
24306;BME280;12423;48.768;8.850;2023-02-01T10:00:15;97598.22;;;5.57;100.00
24306;BME280;12423;48.768;8.850;2023-02-01T10:02:23;97601.91;;;5.54;100.00
24306;BME280;12423;48.768;8.850;2023-02-01T10:04:25;97610.19;;;5.48;100.00
24306;BME280;12423;48.768;8.850;2023-02-01T10:06:36;97612.75;;;5.50;100.00
24306;BME280;12423;48.768;8.850;2023-02-01T10:11:13;97605.75;;;5.49;100.00
24306;BME280;12423;48.768;8.850;2023-02-01T10:15:58;97616.25;;;5.50;100.00
24306;BME280;12423;48.768;8.850;2023-02-01T10:20:25;97624.63;;;5.59;100.00
24306;BME280;12423;48.768;8.850;2023-02-01T10:22:52;97635.59;;;5.37;100.00
24306;BME280;12423;48.768;8.850;2023-02-01T10:25:07;97631.56;;;5.29;100.00
24306;BME280;12423;48.768;8.850;2023-02-01T10:29:20;97652.16;;;5.24;100.00
24306;BME280;12423;48.768;8.850;2023-02-01T10:31:25;97651.66;;;5.33;100.00
24306;BME280;12423;48.768;8.850;2023-02-01T10:33:33;97650.97;;;5.30;100.00
24306;BME280;12423;48.768;8.850;2023-02-01T10:35:36;97654.03;;;5.22;100.00
24306;BME280;12423;48.768;8.850;2023-02-01T10:37:37;97653.09;;;5.23;100.00
24306;BME280;12423;48.768;8.850;2023-02-01T10:39:38;97643.44;;;5.22;100.00
24306;BME280;12423;48.768;8.850;2023-02-01T10:41:40;97648.41;;;5.28;100.00
24306;BME280;12423;48.768;8.850;2023-02-01T10:43:42;97646.84;;;5.24;100.00
24306;BME280;12423;48.768;8.850;2023-02-01T10:45:44;97650.47;;;5.23;100.00
24306;BME280;12423;48.768;8.850;2023-02-01T10:47:46;97646.28;;;5.35;100.00
24306;BME280;12423;48.768;8.850;2023-02-01T10:50:09;97641.06;;;5.33;100.00
24306;BME280;12423;48.768;8.850;2023-02-01T10:52:34;97638.47;;;5.64;100.00
24306;BME280;12423;48.768;8.850;2023-02-01T10:54:38;97639.34;;;5.64;100.00
24306;BME280;12423;48.768;8.850;2023-02-01T10:56:39;97631.75;;;5.58;100.00
24306;BME280;12423;48.768;8.850;2023-02-01T10:58:46;97630.03;;;5.57;100.00
24306;BME280;12423;48.768;8.850;2023-02-01T11:00:57;97632.41;;;5.46;100.00
24306;BME280;12423;48.768;8.850;2023-02-01T11:02:58;97614.56;;;5.49;100.00
24306;BME280;12423;48.768;8.850;2023-02-01T11:05:09;97652.69;;;5.47;100.00
24306;BME280;12423;48.768;8.850;2023-02-01T11:07:17;97623.88;;;5.41;100.00
24306;BME280;12423;48.768;8.850;2023-02-01T11:09:24;97629.63;;;5.33;100.00
24306;BME280;12423;48.768;8.850;2023-02-01T11:11:26;97626.34;;;5.44;100.00
24306;BME280;12423;48.768;8.850;2023-02-01T11:13:32;97630.13;;;5.40;100.00
24306;BME280;12423;48.768;8.850;2023-02-01T11:15:36;97622.69;;;5.30;100.00
24306;BME280;12423;48.768;8.850;2023-02-01T11:17:41;97633.28;;;5.30;100.00
24306;BME280;12423;48.768;8.850;2023-02-01T11:19:45;97617.03;;;5.37;100.00
24306;BME280;12423;48.768;8.850;2023-02-01T11:21:55;97621.06;;;5.44;100.00
24306;BME280;12423;48.768;8.850;2023-02-01T11:24:00;97612.84;;;5.48;100.00
24306;BME280;12423;48.768;8.850;2023-02-01T11:26:23;97610.28;;;5.47;100.00
24306;BME280;12423;48.768;8.850;2023-02-01T11:28:27;97611.81;;;5.51;100.00